createdAt,value
2022-07-30T00:00:11.493Z,96.98
2022-07-30T00:01:11.512Z,97.19
2022-07-30T00:02:11.423Z,96.98
2022-07-30T00:03:11.401Z,97.25
2022-07-30T00:04:11.377Z,96.84
2022-07-30T00:05:11.380Z,96.64
2022-07-30T00:06:11.333Z,96.84
2022-07-30T00:07:11.309Z,97.85
2022-07-30T00:08:11.287Z,97.80
2022-07-30T00:09:11.264Z,97.29
2022-07-30T00:10:11.269Z,97.25
2022-07-30T00:11:11.218Z,96.13
2022-07-30T00:12:11.194Z,96.13
2022-07-30T00:13:14.064Z,96.03
2022-07-30T00:14:11.152Z,96.03
2022-07-30T00:15:11.157Z,95.83
2022-07-30T00:16:11.173Z,95.98
2022-07-30T00:17:11.126Z,96.23
2022-07-30T00:18:11.168Z,96.03
2022-07-30T00:19:11.041Z,96.03
2022-07-30T00:20:11.358Z,96.03
2022-07-30T00:21:11.176Z,95.93
2022-07-30T00:22:11.975Z,95.93
2022-07-30T00:23:10.955Z,96.44
2022-07-30T00:24:10.935Z,95.93
2022-07-30T00:25:10.937Z,96.13
2022-07-30T00:26:10.890Z,96.74
2022-07-30T00:27:10.862Z,96.54
2022-07-30T00:28:10.863Z,96.34
2022-07-30T00:29:10.823Z,96.94
2022-07-30T00:30:10.823Z,96.64
2022-07-30T00:31:10.829Z,96.39
2022-07-30T00:32:10.758Z,96.49
2022-07-30T00:33:10.729Z,96.13
2022-07-30T00:34:10.709Z,96.74
2022-07-30T00:35:10.713Z,96.80
2022-07-30T00:36:10.668Z,96.94
2022-07-30T00:37:10.644Z,97.25
2022-07-30T00:38:10.623Z,97.00
2022-07-30T00:39:10.601Z,96.89
2022-07-30T00:40:10.602Z,97.10
2022-07-30T00:41:10.553Z,97.40
2022-07-30T00:42:10.529Z,96.89
2022-07-30T00:43:10.506Z,96.80
2022-07-30T00:44:10.487Z,96.59
2022-07-30T00:45:10.496Z,96.94
2022-07-30T00:46:10.565Z,96.74
2022-07-30T00:47:10.422Z,96.84
2022-07-30T00:48:10.396Z,97.60
2022-07-30T00:49:10.429Z,97.25
2022-07-30T00:50:10.380Z,97.25
2022-07-30T00:51:10.329Z,97.14
2022-07-30T00:52:10.305Z,97.45
2022-07-30T00:53:10.281Z,97.75
2022-07-30T00:54:10.263Z,97.65
2022-07-30T00:55:10.271Z,97.85
2022-07-30T00:56:10.219Z,97.14
2022-07-30T00:57:10.198Z,97.45
2022-07-30T00:58:10.172Z,97.96
2022-07-30T00:59:10.155Z,97.25
2022-07-30T01:00:10.157Z,97.34
2022-07-30T01:01:10.176Z,97.55
2022-07-30T01:02:10.173Z,97.10
2022-07-30T01:03:10.065Z,97.60
2022-07-30T01:04:10.123Z,96.69
2022-07-30T01:05:10.049Z,96.69
2022-07-30T01:06:14.545Z,97.00
2022-07-30T01:07:09.977Z,96.39
2022-07-30T01:08:10.039Z,96.49
2022-07-30T01:09:09.937Z,96.69
2022-07-30T01:10:09.948Z,96.54
2022-07-30T01:11:09.895Z,96.29
2022-07-30T01:12:09.869Z,96.69
2022-07-30T01:13:09.862Z,96.39
2022-07-30T01:14:09.832Z,96.29
2022-07-30T01:15:09.808Z,96.69
2022-07-30T01:16:09.856Z,96.49
2022-07-30T01:17:09.764Z,95.89
2022-07-30T01:18:09.743Z,95.98
2022-07-30T01:19:09.732Z,96.34
2022-07-30T01:20:09.729Z,95.89
2022-07-30T01:21:09.702Z,95.98
2022-07-30T01:22:09.658Z,96.09
2022-07-30T01:23:09.632Z,95.93
2022-07-30T01:24:09.614Z,95.93
2022-07-30T01:25:09.593Z,96.34
2022-07-30T01:26:09.595Z,96.74
2022-07-30T01:27:09.545Z,96.44
2022-07-30T01:28:09.518Z,96.84
2022-07-30T01:29:09.502Z,96.34
2022-07-30T01:30:09.506Z,96.94
2022-07-30T01:31:09.487Z,96.64
2022-07-30T01:32:09.430Z,96.94
2022-07-30T01:33:09.409Z,97.29
2022-07-30T01:34:09.388Z,97.25
2022-07-30T01:35:09.366Z,97.14
2022-07-30T01:36:09.373Z,97.25
2022-07-30T01:37:09.321Z,97.25
2022-07-30T01:38:09.302Z,97.19
2022-07-30T01:39:09.279Z,97.60
2022-07-30T01:40:09.289Z,96.69
2022-07-30T01:41:09.234Z,96.98
2022-07-30T01:42:09.250Z,97.09
2022-07-30T01:43:09.189Z,97.29
2022-07-30T01:44:09.167Z,97.80
2022-07-30T01:45:09.151Z,97.09
2022-07-30T01:46:09.231Z,97.85
2022-07-30T01:47:09.100Z,97.19
2022-07-30T01:48:09.076Z,97.03
2022-07-30T01:49:09.074Z,97.09
2022-07-30T01:50:11.129Z,97.19
2022-07-30T01:51:09.037Z,97.34
2022-07-30T01:52:08.989Z,97.09
2022-07-30T01:53:08.967Z,97.49
2022-07-30T01:54:08.945Z,97.19
2022-07-30T01:55:16.965Z,97.60
2022-07-30T01:56:10.719Z,96.73
2022-07-30T01:57:08.876Z,97.85
2022-07-30T01:58:08.853Z,97.24
2022-07-30T01:59:09.519Z,97.14
2022-07-30T02:00:08.811Z,97.44
2022-07-30T02:01:08.866Z,98.25
2022-07-30T02:02:08.798Z,98.09
2022-07-30T02:03:08.856Z,98.09
2022-07-30T02:04:08.726Z,97.69
2022-07-30T02:05:08.706Z,97.99
2022-07-30T02:06:08.731Z,97.58
2022-07-30T02:07:08.662Z,97.94
2022-07-30T02:08:08.645Z,98.05
2022-07-30T02:09:10.703Z,98.14
2022-07-30T02:10:08.604Z,98.35
2022-07-30T02:11:08.606Z,97.85
2022-07-30T02:12:08.558Z,97.64
2022-07-30T02:13:08.534Z,98.25
2022-07-30T02:14:08.510Z,97.64
2022-07-30T02:15:08.488Z,97.34
2022-07-30T02:16:08.544Z,97.54
2022-07-30T02:17:08.444Z,97.64
2022-07-30T02:18:09.423Z,97.29
2022-07-30T02:19:08.400Z,96.78
2022-07-30T02:20:10.096Z,97.19
2022-07-30T02:21:11.446Z,97.09
2022-07-30T02:22:08.546Z,96.18
2022-07-30T02:23:08.315Z,95.92
2022-07-30T02:24:08.294Z,96.69
2022-07-30T02:25:08.269Z,96.18
2022-07-30T02:26:08.273Z,96.22
2022-07-30T02:27:08.227Z,95.11
2022-07-30T02:28:08.201Z,95.37
2022-07-30T02:29:11.235Z,95.31
2022-07-30T02:30:09.162Z,95.31
2022-07-30T02:31:17.656Z,95.42
2022-07-30T02:32:09.113Z,95.31
2022-07-30T02:33:08.091Z,95.21
2022-07-30T02:34:08.072Z,95.42
2022-07-30T02:35:08.049Z,95.42
2022-07-30T02:36:11.341Z,95.21
2022-07-30T02:37:08.007Z,96.98
2022-07-30T02:38:07.980Z,98.14
2022-07-30T02:39:07.956Z,98.65
2022-07-30T02:40:07.932Z,99.99
2022-07-30T02:41:07.939Z,99.86
2022-07-30T02:42:07.889Z,99.99
2022-07-30T02:43:07.865Z,99.99
2022-07-30T02:44:07.845Z,99.99
2022-07-30T02:45:07.824Z,99.35
2022-07-30T02:46:07.824Z,99.46
2022-07-30T02:47:07.857Z,99.30
2022-07-30T02:48:07.759Z,99.41
2022-07-30T02:49:07.824Z,98.90
2022-07-30T02:50:07.711Z,98.70
2022-07-30T02:51:07.716Z,98.60
2022-07-30T02:52:07.667Z,98.80
2022-07-30T02:53:07.642Z,98.60
2022-07-30T02:54:07.619Z,98.90
2022-07-30T02:55:07.604Z,98.80
2022-07-30T02:56:07.607Z,98.50
2022-07-30T02:57:07.554Z,98.29
2022-07-30T02:58:07.539Z,98.70
2022-07-30T02:59:07.511Z,98.80
2022-07-30T03:00:07.487Z,99.15
2022-07-30T03:01:07.606Z,98.85
2022-07-30T03:02:07.479Z,99.25
2022-07-30T03:03:07.426Z,99.25
2022-07-30T03:04:07.399Z,99.35
2022-07-30T03:05:07.376Z,99.46
2022-07-30T03:06:07.401Z,99.01
2022-07-30T03:07:08.591Z,99.61
2022-07-30T03:08:08.341Z,99.86
2022-07-30T03:09:07.292Z,99.55
2022-07-30T03:10:07.269Z,99.66
2022-07-30T03:11:07.270Z,99.99
2022-07-30T03:12:07.224Z,99.10
2022-07-30T03:13:07.204Z,99.76
2022-07-30T03:14:07.176Z,99.35
2022-07-30T03:15:07.157Z,99.55
2022-07-30T03:16:07.188Z,99.86
2022-07-30T03:17:07.114Z,99.55
2022-07-30T03:18:07.093Z,99.86
2022-07-30T03:19:07.068Z,99.81
2022-07-30T03:20:07.047Z,99.41
2022-07-30T03:21:07.057Z,99.61
2022-07-30T03:22:07.003Z,99.21
2022-07-30T03:23:06.978Z,99.51
2022-07-30T03:24:06.959Z,99.41
2022-07-30T03:25:06.934Z,98.90
2022-07-30T03:26:06.938Z,99.21
2022-07-30T03:27:06.887Z,99.41
2022-07-30T03:28:06.872Z,99.41
2022-07-30T03:29:06.842Z,98.85
2022-07-30T03:30:06.822Z,98.85
2022-07-30T03:31:06.858Z,99.01
2022-07-30T03:32:06.819Z,98.90
2022-07-30T03:33:06.755Z,98.50
2022-07-30T03:34:06.734Z,98.65
2022-07-30T03:35:08.844Z,98.35
2022-07-30T03:36:07.711Z,98.05
2022-07-30T03:37:06.680Z,98.25
2022-07-30T03:38:06.642Z,98.10
2022-07-30T03:39:06.620Z,97.49
2022-07-30T03:40:06.597Z,98.00
2022-07-30T03:41:06.610Z,97.60
2022-07-30T03:42:06.555Z,97.64
2022-07-30T03:43:18.557Z,97.19
2022-07-30T03:44:07.513Z,97.60
2022-07-30T03:45:06.490Z,97.64
2022-07-30T03:46:06.559Z,97.85
2022-07-30T03:47:06.498Z,97.80
2022-07-30T03:48:06.421Z,97.14
2022-07-30T03:49:06.482Z,98.05
2022-07-30T03:50:06.391Z,97.74
2022-07-30T03:51:06.357Z,97.85
2022-07-30T03:52:06.344Z,97.34
2022-07-30T03:53:06.317Z,96.73
2022-07-30T03:54:08.453Z,96.93
2022-07-30T03:55:07.273Z,97.14
2022-07-30T03:56:06.281Z,97.03
2022-07-30T03:57:06.228Z,96.89
2022-07-30T03:58:06.208Z,97.19
2022-07-30T03:59:06.184Z,97.29
2022-07-30T04:00:06.165Z,97.29
2022-07-30T04:01:06.166Z,96.98
2022-07-30T04:02:07.427Z,97.29
2022-07-30T04:03:06.095Z,96.18
2022-07-30T04:04:06.140Z,96.38
2022-07-30T04:05:06.048Z,96.23
2022-07-30T04:06:06.057Z,96.48
2022-07-30T04:07:06.004Z,95.93
2022-07-30T04:08:05.984Z,95.83
2022-07-30T04:09:05.959Z,95.67
2022-07-30T04:10:05.938Z,95.22
2022-07-30T04:11:05.949Z,95.32
2022-07-30T04:12:05.896Z,95.32
2022-07-30T04:13:09.441Z,95.32
2022-07-30T04:14:06.876Z,95.53
2022-07-30T04:16:35.555Z,95.32
2022-07-30T04:16:38.956Z,92.90
2022-07-30T04:17:07.826Z,92.90
2022-07-30T04:18:05.767Z,93.55
2022-07-30T04:19:05.767Z,93.71
2022-07-30T04:20:05.715Z,93.40
2022-07-30T04:21:05.719Z,93.30
2022-07-30T04:22:05.669Z,93.20
2022-07-30T04:23:05.647Z,93.16
2022-07-30T04:24:05.866Z,93.10
2022-07-30T04:25:05.601Z,93.96
2022-07-30T04:26:05.606Z,93.76
2022-07-30T04:27:05.562Z,94.07
2022-07-30T04:28:05.538Z,93.46
2022-07-30T04:29:05.521Z,93.56
2022-07-30T04:30:05.489Z,93.72
2022-07-30T04:31:05.552Z,94.12
2022-07-30T04:32:05.448Z,93.76
2022-07-30T04:33:05.430Z,93.92
2022-07-30T04:34:05.405Z,93.21
2022-07-30T04:35:05.380Z,93.41
2022-07-30T04:36:05.388Z,91.90
2022-07-30T04:37:05.338Z,91.50
2022-07-30T04:38:05.316Z,90.19
2022-07-30T04:39:05.292Z,90.49
2022-07-30T04:40:05.272Z,89.72
2022-07-30T04:41:05.273Z,90.08
2022-07-30T04:42:05.226Z,90.39
2022-07-30T04:43:05.206Z,89.78
2022-07-30T04:44:05.186Z,90.28
2022-07-30T04:45:05.161Z,90.45
2022-07-30T04:46:05.209Z,90.49
2022-07-30T04:47:05.118Z,90.24
2022-07-30T04:48:05.095Z,90.34
2022-07-30T04:49:05.153Z,90.34
2022-07-30T04:50:05.049Z,90.14
2022-07-30T04:51:05.058Z,90.04
2022-07-30T04:52:05.011Z,89.94
2022-07-30T04:53:04.986Z,89.74
2022-07-30T04:54:04.967Z,89.09
2022-07-30T04:55:04.941Z,88.79
2022-07-30T04:56:04.945Z,88.89
2022-07-30T04:57:05.129Z,88.28
2022-07-30T04:58:04.892Z,88.93
2022-07-30T04:59:04.849Z,89.79
2022-07-30T05:00:04.829Z,89.64
2022-07-30T05:01:04.828Z,89.70
2022-07-30T05:02:04.856Z,89.39
2022-07-30T05:03:04.763Z,90.14
2022-07-30T05:04:04.736Z,91.15
2022-07-30T05:05:04.800Z,91.41
2022-07-30T05:06:04.719Z,90.85
2022-07-30T05:07:05.094Z,90.85
2022-07-30T05:08:04.644Z,91.35
2022-07-30T05:09:04.626Z,91.50
2022-07-30T05:10:04.597Z,92.61
2022-07-30T05:11:04.600Z,92.71
2022-07-30T05:12:04.551Z,92.85
2022-07-30T05:13:04.535Z,93.87
2022-07-30T05:14:04.505Z,93.62
2022-07-30T05:15:04.487Z,93.41
2022-07-30T05:16:04.572Z,94.02
2022-07-30T05:17:04.626Z,94.87
2022-07-30T05:18:04.984Z,95.03
2022-07-30T05:19:07.605Z,95.34
2022-07-30T05:20:05.383Z,95.14
2022-07-30T05:21:04.385Z,95.18
2022-07-30T05:22:06.746Z,96.09
2022-07-30T05:23:05.312Z,96.89
2022-07-30T05:24:04.293Z,98.01
2022-07-30T05:25:04.267Z,96.80
2022-07-30T05:26:04.277Z,97.30
2022-07-30T05:27:04.437Z,97.55
2022-07-30T05:28:04.203Z,97.71
2022-07-30T05:29:07.246Z,97.50
2022-07-30T05:30:04.162Z,97.10
2022-07-30T05:31:08.199Z,97.71
2022-07-30T05:32:04.115Z,96.80
2022-07-30T05:33:12.203Z,95.94
2022-07-30T05:34:05.073Z,95.94
2022-07-30T05:35:04.048Z,95.54
2022-07-30T05:36:04.055Z,94.99
2022-07-30T05:37:04.368Z,95.09
2022-07-30T05:38:03.985Z,94.68
2022-07-30T05:39:03.963Z,93.27
2022-07-30T05:40:03.973Z,91.76
2022-07-30T05:41:03.944Z,91.31
2022-07-30T05:42:04.900Z,90.81
2022-07-30T05:43:03.877Z,91.21
2022-07-30T05:44:03.869Z,91.31
2022-07-30T05:45:03.835Z,91.11
2022-07-30T05:46:03.884Z,91.82
2022-07-30T05:47:03.958Z,90.56
2022-07-30T05:48:03.762Z,89.86
2022-07-30T05:49:04.888Z,89.70
2022-07-30T05:50:05.507Z,89.50
2022-07-30T05:51:04.733Z,88.95
2022-07-30T05:52:03.679Z,89.45
2022-07-30T05:53:03.661Z,89.25
2022-07-30T05:54:03.639Z,88.14
2022-07-30T05:55:03.616Z,87.63
2022-07-30T05:56:03.619Z,88.14
2022-07-30T05:57:04.029Z,88.34
2022-07-30T05:58:04.551Z,87.43
2022-07-30T05:59:03.534Z,87.63
2022-07-30T06:00:03.511Z,87.54
2022-07-30T06:01:03.509Z,87.40
2022-07-30T06:02:03.623Z,87.19
2022-07-30T06:03:03.453Z,87.49
2022-07-30T06:04:03.450Z,88.75
2022-07-30T06:05:03.519Z,87.68
2022-07-30T06:06:03.410Z,87.68
2022-07-30T06:07:03.755Z,86.47
2022-07-30T06:08:03.337Z,87.98
2022-07-30T06:09:03.314Z,88.39
2022-07-30T06:10:03.295Z,88.73
2022-07-30T06:11:03.310Z,88.83
2022-07-30T06:12:03.247Z,88.99
2022-07-30T06:13:03.225Z,89.70
2022-07-30T06:14:03.208Z,89.90
2022-07-30T06:15:03.187Z,89.90
2022-07-30T06:16:03.212Z,88.95
2022-07-30T06:17:03.564Z,88.45
2022-07-30T06:18:03.120Z,88.00
2022-07-30T06:19:03.530Z,88.90
2022-07-30T06:20:03.065Z,89.11
2022-07-30T06:21:04.079Z,87.43
2022-07-30T06:22:06.678Z,87.43
2022-07-30T06:23:03.004Z,87.27
2022-07-30T06:24:02.981Z,88.39
2022-07-30T06:25:02.961Z,87.84
2022-07-30T06:26:02.967Z,87.54
2022-07-30T06:27:03.477Z,88.45
2022-07-30T06:28:15.645Z,88.04
2022-07-30T06:29:04.875Z,88.45
2022-07-30T06:30:02.857Z,87.43
2022-07-30T06:31:02.910Z,87.23
2022-07-30T06:32:02.812Z,88.18
2022-07-30T06:33:02.794Z,88.14
2022-07-30T06:34:02.778Z,88.24
2022-07-30T06:35:05.000Z,88.54
2022-07-30T06:36:03.748Z,87.84
2022-07-30T06:37:03.129Z,87.49
2022-07-30T06:38:07.291Z,87.23
2022-07-30T06:39:03.657Z,87.94
2022-07-30T06:40:02.639Z,88.45
2022-07-30T06:41:04.484Z,87.74
2022-07-30T06:42:02.590Z,88.54
2022-07-30T06:43:02.567Z,88.75
2022-07-30T06:44:02.554Z,88.65
2022-07-30T06:45:02.523Z,89.25
2022-07-30T06:46:02.573Z,88.34
2022-07-30T06:47:07.475Z,88.40
2022-07-30T06:48:04.449Z,88.34
2022-07-30T06:49:02.501Z,89.05
2022-07-30T06:50:02.410Z,89.25
2022-07-30T06:51:02.392Z,89.51
2022-07-30T06:52:02.397Z,89.25
2022-07-30T06:53:02.346Z,90.10
2022-07-30T06:54:02.332Z,91.31
2022-07-30T06:55:02.305Z,91.71
2022-07-30T06:56:02.287Z,91.82
2022-07-30T06:57:02.682Z,91.61
2022-07-30T06:58:02.239Z,91.82
2022-07-30T06:59:02.222Z,91.91
2022-07-30T07:00:02.202Z,91.21
2022-07-30T07:01:02.304Z,91.11
2022-07-30T07:02:02.187Z,91.61
2022-07-30T07:03:02.141Z,90.77
2022-07-30T07:04:02.154Z,89.75
2022-07-30T07:05:02.093Z,89.11
2022-07-30T07:06:02.073Z,89.11
2022-07-30T07:07:12.198Z,88.81
2022-07-30T07:08:03.033Z,87.85
2022-07-30T07:09:02.016Z,89.11
2022-07-30T07:10:01.990Z,89.81
2022-07-30T07:11:01.973Z,89.55
2022-07-30T07:12:01.984Z,89.65
2022-07-30T07:13:01.941Z,89.21
2022-07-30T07:14:04.659Z,89.51
2022-07-30T07:15:02.885Z,90.42
2022-07-30T07:16:01.870Z,90.22
2022-07-30T07:17:02.259Z,89.81
2022-07-30T07:18:02.361Z,89.97
2022-07-30T07:19:01.799Z,89.41
2022-07-30T07:20:02.782Z,89.91
2022-07-30T07:21:02.765Z,89.43
2022-07-30T07:22:01.768Z,88.02
2022-07-30T07:23:06.574Z,87.27
2022-07-30T07:24:03.699Z,87.07
2022-07-30T07:25:01.691Z,87.17
2022-07-30T07:26:01.660Z,87.07
2022-07-30T07:27:02.045Z,85.46
2022-07-30T07:28:12.039Z,87.31
2022-07-30T07:29:05.221Z,87.71
2022-07-30T07:30:05.525Z,87.41
2022-07-30T07:31:01.608Z,86.61
2022-07-30T07:32:05.707Z,87.27
2022-07-30T07:33:02.517Z,86.91
2022-07-30T07:34:01.509Z,88.96
2022-07-30T07:35:01.494Z,87.65
2022-07-30T07:36:01.463Z,88.66
2022-07-30T07:37:01.752Z,89.57
2022-07-30T07:38:01.418Z,88.72
2022-07-30T07:39:02.401Z,87.11
2022-07-30T07:40:01.386Z,86.97
2022-07-30T07:41:01.362Z,86.16
2022-07-30T07:42:01.368Z,84.57
2022-07-30T07:43:01.320Z,84.23
2022-07-30T07:44:01.301Z,82.58
2022-07-30T07:45:01.285Z,82.14
2022-07-30T07:46:01.333Z,81.84
2022-07-30T07:47:01.606Z,80.94
2022-07-30T07:48:01.229Z,82.10
2022-07-30T07:49:01.288Z,79.80
2022-07-30T07:50:01.186Z,80.26
2022-07-30T07:51:01.167Z,79.16
2022-07-30T07:52:01.174Z,79.92
2022-07-30T07:53:01.132Z,78.42
2022-07-30T07:54:20.493Z,77.61
2022-07-30T07:55:03.347Z,75.93
2022-07-30T07:56:01.074Z,75.30
2022-07-30T07:57:01.298Z,74.96
2022-07-30T07:58:01.033Z,74.96
2022-07-30T07:59:01.018Z,74.87
2022-07-30T08:00:00.996Z,75.33
2022-07-30T08:01:01.019Z,74.19
2022-07-30T08:02:01.052Z,74.49
2022-07-30T08:03:00.943Z,68.93
2022-07-30T08:04:00.926Z,66.44
2022-07-30T08:05:00.906Z,66.41
2022-07-30T08:06:05.793Z,62.68
2022-07-30T08:07:02.356Z,61.53
2022-07-30T08:08:00.855Z,60.71
2022-07-30T08:09:00.833Z,59.25
2022-07-30T08:10:00.820Z,62.35
2022-07-30T08:11:00.801Z,62.08
2022-07-30T08:12:00.812Z,63.18
2022-07-30T08:13:00.764Z,61.19
2022-07-30T08:14:00.743Z,61.39
2022-07-30T08:15:00.732Z,61.19
2022-07-30T08:16:00.707Z,63.31
2022-07-30T08:17:01.277Z,63.40
2022-07-30T08:18:00.678Z,62.38
2022-07-30T08:19:01.458Z,63.21
2022-07-30T08:20:00.639Z,63.37
2022-07-30T08:21:00.621Z,63.83
2022-07-30T08:22:00.631Z,65.55
2022-07-30T08:23:00.588Z,64.59
2022-07-30T08:24:00.571Z,64.39
2022-07-30T08:25:00.554Z,64.66
2022-07-30T08:26:00.535Z,65.68
2022-07-30T08:27:00.806Z,66.61
2022-07-30T08:28:00.501Z,66.84
2022-07-30T08:29:00.481Z,66.35
2022-07-30T08:30:00.463Z,67.37
2022-07-30T08:31:02.411Z,67.83
2022-07-30T08:32:01.720Z,67.07
2022-07-30T08:33:00.414Z,68.99
2022-07-30T08:34:00.394Z,68.43
2022-07-30T08:35:00.376Z,69.62
2022-07-30T08:36:04.176Z,68.86
2022-07-30T08:37:00.363Z,66.61
2022-07-30T08:38:00.321Z,66.22
2022-07-30T08:39:00.306Z,65.26
2022-07-30T08:40:00.288Z,64.50
2022-07-30T08:41:00.268Z,61.27
2022-07-30T08:42:00.529Z,62.10
2022-07-30T08:43:00.237Z,61.70
2022-07-30T08:44:00.219Z,61.87
2022-07-30T08:45:00.221Z,60.62
2022-07-30T08:46:00.186Z,58.98
2022-07-30T08:47:00.450Z,58.65
2022-07-30T08:48:00.149Z,57.33
2022-07-30T08:49:05.369Z,58.59
2022-07-30T08:50:01.110Z,58.94
2022-07-30T08:51:00.095Z,60.31
2022-07-30T08:52:00.369Z,58.88
2022-07-30T08:53:00.068Z,61.46
2022-07-30T08:54:00.089Z,61.04
2022-07-30T08:55:00.022Z,61.50
2022-07-30T08:56:00.006Z,61.96
2022-07-30T08:57:00.014Z,59.58
2022-07-30T08:57:59.966Z,58.88
2022-07-30T08:58:59.949Z,59.89
2022-07-30T09:00:01.710Z,59.17
2022-07-30T09:00:59.918Z,59.52
2022-07-30T09:02:00.139Z,59.52
2022-07-30T09:02:59.880Z,58.70
2022-07-30T09:04:00.613Z,58.30
2022-07-30T09:04:59.844Z,57.03
2022-07-30T09:05:59.827Z,54.44
2022-07-30T09:07:00.029Z,56.29
2022-07-30T09:07:59.790Z,54.36
2022-07-30T09:08:59.771Z,54.55
2022-07-30T09:09:59.753Z,53.79
2022-07-30T09:10:59.740Z,54.72
2022-07-30T09:11:59.749Z,53.22
2022-07-30T09:12:59.700Z,52.75
2022-07-30T09:13:59.680Z,53.50
2022-07-30T09:14:59.666Z,53.37
2022-07-30T09:15:59.643Z,52.01
2022-07-30T09:17:00.715Z,53.12
2022-07-30T09:18:00.451Z,51.92
2022-07-30T09:18:59.596Z,52.46
2022-07-30T09:19:59.584Z,51.84
2022-07-30T09:20:59.563Z,52.73
2022-07-30T09:21:59.566Z,51.97
2022-07-30T09:22:59.521Z,53.08
2022-07-30T09:23:59.502Z,52.51
2022-07-30T09:24:59.483Z,52.34
2022-07-30T09:25:59.468Z,54.27
2022-07-30T09:27:00.380Z,55.68
2022-07-30T09:27:59.433Z,56.20
2022-07-30T09:28:59.946Z,53.33
2022-07-30T09:29:59.411Z,55.30
2022-07-30T09:30:59.380Z,54.86
2022-07-30T09:31:59.725Z,54.64
2022-07-30T09:32:59.344Z,53.90
2022-07-30T09:33:59.328Z,54.72
2022-07-30T09:34:59.310Z,54.52
2022-07-30T09:35:59.297Z,57.10
2022-07-30T09:36:59.303Z,56.56
2022-07-30T09:38:02.969Z,59.27
2022-07-30T09:39:01.239Z,57.87
2022-07-30T09:39:59.908Z,56.98
2022-07-30T09:41:04.878Z,58.97
2022-07-30T09:42:00.492Z,59.27
2022-07-30T09:42:59.201Z,59.56
2022-07-30T09:43:59.155Z,60.06
2022-07-30T09:44:59.138Z,57.87
2022-07-30T09:45:59.120Z,59.76
2022-07-30T09:46:59.133Z,58.37
2022-07-30T09:47:59.085Z,57.98
2022-07-30T09:48:59.087Z,58.80
2022-07-30T09:50:02.806Z,60.75
2022-07-30T09:51:00.034Z,59.47
2022-07-30T09:51:59.018Z,61.72
2022-07-30T09:52:59.030Z,59.11
2022-07-30T09:53:58.979Z,59.25
2022-07-30T09:54:59.943Z,55.46
2022-07-30T09:55:58.947Z,56.45
2022-07-30T09:56:58.932Z,55.06
2022-07-30T09:57:58.993Z,55.28
2022-07-30T09:58:58.892Z,53.97
2022-07-30T09:59:59.987Z,55.43
2022-07-30T10:01:00.432Z,54.96
2022-07-30T10:02:00.950Z,54.17
2022-07-30T10:02:58.847Z,53.97
2022-07-30T10:03:58.803Z,53.60
2022-07-30T10:04:58.789Z,53.70
2022-07-30T10:05:58.772Z,53.89
2022-07-30T10:06:58.752Z,56.04
2022-07-30T10:07:58.760Z,55.35
2022-07-30T10:08:58.715Z,55.20
2022-07-30T10:09:58.695Z,52.95
2022-07-30T10:10:58.675Z,52.76
2022-07-30T10:11:59.808Z,53.64
2022-07-30T10:12:58.671Z,52.06
2022-07-30T10:13:58.624Z,53.80
2022-07-30T10:14:58.608Z,53.30
2022-07-30T10:15:58.597Z,53.82
2022-07-30T10:16:58.571Z,54.02
2022-07-30T10:17:58.587Z,54.91
2022-07-30T10:18:58.538Z,53.80
2022-07-30T10:19:58.528Z,53.55
2022-07-30T10:20:58.506Z,56.25
2022-07-30T10:21:58.561Z,54.84
2022-07-30T10:22:58.493Z,54.24
2022-07-30T10:23:58.451Z,53.25
2022-07-30T10:24:58.433Z,54.71
2022-07-30T10:25:58.419Z,53.53
2022-07-30T10:26:58.475Z,54.71
2022-07-30T10:27:58.405Z,53.45
2022-07-30T10:28:58.360Z,55.19
2022-07-30T10:29:58.343Z,54.30
2022-07-30T10:30:58.327Z,55.09
2022-07-30T10:31:58.312Z,55.49
2022-07-30T10:32:58.324Z,54.89
2022-07-30T10:33:58.276Z,55.02
2022-07-30T10:34:58.257Z,55.61
2022-07-30T10:35:58.237Z,56.30
2022-07-30T10:36:58.218Z,55.91
2022-07-30T10:37:59.055Z,56.60
2022-07-30T10:38:58.182Z,55.61
2022-07-30T10:39:58.161Z,56.57
2022-07-30T10:40:58.148Z,55.98
2022-07-30T10:41:58.129Z,57.20
2022-07-30T10:42:58.140Z,55.41
2022-07-30T10:43:58.095Z,55.71
2022-07-30T10:44:58.076Z,56.30
2022-07-30T10:45:58.062Z,56.43
2022-07-30T10:46:59.418Z,56.43
2022-07-30T10:47:59.057Z,57.06
2022-07-30T10:48:58.077Z,55.89
2022-07-30T10:49:58.994Z,56.19
2022-07-30T10:50:57.976Z,56.98
2022-07-30T10:51:57.957Z,57.38
2022-07-30T10:52:57.967Z,58.87
2022-07-30T10:53:57.923Z,59.27
2022-07-30T10:54:57.905Z,54.30
2022-07-30T10:55:57.890Z,56.95
2022-07-30T10:56:57.870Z,58.84
2022-07-30T10:57:57.882Z,56.36
2022-07-30T10:58:57.832Z,57.65
2022-07-30T10:59:57.813Z,56.34
2022-07-30T11:00:57.795Z,55.51
2022-07-30T11:01:57.781Z,55.44
2022-07-30T11:02:57.793Z,54.45
2022-07-30T11:03:57.741Z,54.72
2022-07-30T11:04:57.722Z,53.63
2022-07-30T11:05:57.740Z,55.61
2022-07-30T11:06:57.687Z,56.40
2022-07-30T11:07:57.701Z,55.78
2022-07-30T11:08:58.131Z,54.89
2022-07-30T11:10:08.749Z,53.33
2022-07-30T11:10:58.615Z,54.00
2022-07-30T11:12:01.821Z,52.94
2022-07-30T11:12:58.618Z,52.61
2022-07-30T11:13:57.591Z,54.00
2022-07-30T11:14:57.554Z,54.42
2022-07-30T11:15:57.532Z,53.06
2022-07-30T11:16:57.515Z,53.66
2022-07-30T11:17:58.083Z,55.15
2022-07-30T11:19:27.220Z,56.13
2022-07-30T11:20:01.813Z,54.64
2022-07-30T11:20:57.447Z,55.04
2022-07-30T11:21:57.427Z,54.08
2022-07-30T11:22:57.435Z,55.29
2022-07-30T11:23:57.392Z,55.49
2022-07-30T11:24:57.369Z,55.72
2022-07-30T11:25:57.356Z,55.15
2022-07-30T11:26:57.334Z,57.93
2022-07-30T11:27:57.346Z,55.67
2022-07-30T11:28:57.314Z,55.67
2022-07-30T11:29:57.307Z,56.20
2022-07-30T11:30:57.267Z,56.40
2022-07-30T11:31:59.507Z,57.49
2022-07-30T11:32:57.260Z,57.39
2022-07-30T11:33:57.712Z,55.60
2022-07-30T11:34:57.196Z,56.49
2022-07-30T11:35:57.178Z,56.40
2022-07-30T11:36:57.161Z,57.39
2022-07-30T11:37:57.171Z,58.78
2022-07-30T11:39:00.088Z,58.48
2022-07-30T11:39:59.100Z,58.91
2022-07-30T11:40:57.084Z,56.20
2022-07-30T11:41:57.067Z,57.99
2022-07-30T11:42:57.072Z,57.79
2022-07-30T11:43:57.031Z,58.88
2022-07-30T11:45:00.951Z,57.66
2022-07-30T11:45:57.994Z,56.47
2022-07-30T11:46:56.977Z,55.74
2022-07-30T11:48:00.092Z,56.04
2022-07-30T11:48:57.115Z,55.85
2022-07-30T11:49:56.919Z,54.85
2022-07-30T11:51:00.743Z,56.21
2022-07-30T11:51:57.879Z,55.12
2022-07-30T11:52:56.888Z,57.70
2022-07-30T11:53:56.845Z,54.33
2022-07-30T11:54:56.827Z,55.29
2022-07-30T11:55:56.806Z,56.59
2022-07-30T11:57:00.731Z,53.68
2022-07-30T11:57:57.798Z,54.57
2022-07-30T11:58:56.752Z,55.57
2022-07-30T11:59:56.732Z,54.28
2022-07-30T12:00:56.723Z,53.98
2022-07-30T12:01:56.693Z,53.98
2022-07-30T12:02:59.843Z,53.61
2022-07-30T12:03:56.656Z,54.82
2022-07-30T12:04:56.636Z,54.72
2022-07-30T12:05:56.618Z,55.62
2022-07-30T12:06:56.601Z,56.14
2022-07-30T12:07:56.606Z,55.44
2022-07-30T12:08:58.802Z,56.04
2022-07-30T12:09:56.546Z,56.24
2022-07-30T12:10:56.528Z,55.97
2022-07-30T12:11:56.508Z,56.14
2022-07-30T12:12:56.515Z,56.64
2022-07-30T12:13:56.470Z,55.74
2022-07-30T12:15:01.571Z,55.74
2022-07-30T12:15:58.434Z,56.04
2022-07-30T12:16:56.417Z,54.85
2022-07-30T12:18:17.575Z,54.55
2022-07-30T12:18:58.385Z,56.14
2022-07-30T12:19:56.362Z,56.04
2022-07-30T12:20:57.624Z,55.74
2022-07-30T12:21:56.325Z,54.53
2022-07-30T12:22:56.343Z,54.16
2022-07-30T12:23:56.291Z,55.72
2022-07-30T12:24:56.274Z,55.52
2022-07-30T12:25:56.257Z,55.82
2022-07-30T12:26:56.234Z,54.50
2022-07-30T12:27:56.243Z,54.57
2022-07-30T12:28:56.203Z,55.96
2022-07-30T12:29:56.180Z,54.94
2022-07-30T12:30:56.165Z,53.63
2022-07-30T12:31:56.146Z,52.71
2022-07-30T12:32:56.156Z,52.81
2022-07-30T12:33:56.115Z,52.56
2022-07-30T12:34:56.091Z,50.76
2022-07-30T12:35:56.076Z,51.62
2022-07-30T12:36:56.055Z,50.71
2022-07-30T12:37:56.060Z,50.90
2022-07-30T12:38:56.012Z,51.00
2022-07-30T12:39:55.996Z,51.59
2022-07-30T12:40:55.979Z,49.84
2022-07-30T12:41:55.999Z,49.64
2022-07-30T12:42:55.946Z,52.93
2022-07-30T12:43:55.952Z,51.10
2022-07-30T12:44:55.905Z,49.99
2022-07-30T12:45:55.914Z,53.78
2022-07-30T12:46:55.870Z,52.69
2022-07-30T12:47:55.852Z,51.00
2022-07-30T12:48:55.942Z,51.30
2022-07-30T12:49:55.882Z,51.92
2022-07-30T12:50:55.825Z,52.44
2022-07-30T12:51:59.747Z,54.22